sensor_id;sensor_type;location;lat;lon;timestamp;temperature;humidity
11505;DHT22;5809;53.262;10.408;2023-04-15T00:00:40;7.10;99.90
11505;DHT22;5809;53.262;10.408;2023-04-15T00:03:08;7.10;99.90
11505;DHT22;5809;53.262;10.408;2023-04-15T00:08:04;7.10;99.90
11505;DHT22;5809;53.262;10.408;2023-04-15T00:10:32;7.10;99.90
11505;DHT22;5809;53.262;10.408;2023-04-15T00:12:59;7.00;99.90
11505;DHT22;5809;53.262;10.408;2023-04-15T00:15:26;7.00;99.90
11505;DHT22;5809;53.262;10.408;2023-04-15T00:22:48;6.90;99.90
11505;DHT22;5809;53.262;10.408;2023-04-15T00:25:17;6.90;99.90
11505;DHT22;5809;53.262;10.408;2023-04-15T00:27:44;6.90;99.90
11505;DHT22;5809;53.262;10.408;2023-04-15T00:30:11;6.90;99.90
11505;DHT22;5809;53.262;10.408;2023-04-15T00:32:41;6.80;99.90
11505;DHT22;5809;53.262;10.408;2023-04-15T00:35:08;6.80;99.90
11505;DHT22;5809;53.262;10.408;2023-04-15T00:37:35;6.80;99.90
11505;DHT22;5809;53.262;10.408;2023-04-15T00:40:02;6.80;99.90
11505;DHT22;5809;53.262;10.408;2023-04-15T00:42:33;6.80;99.90
11505;DHT22;5809;53.262;10.408;2023-04-15T00:45:00;6.80;99.90
11505;DHT22;5809;53.262;10.408;2023-04-15T00:47:28;6.80;99.90
11505;DHT22;5809;53.262;10.408;2023-04-15T00:49:56;6.80;99.90
11505;DHT22;5809;53.262;10.408;2023-04-15T00:52:22;6.80;99.90
11505;DHT22;5809;53.262;10.408;2023-04-15T00:54:49;6.80;99.90
11505;DHT22;5809;53.262;10.408;2023-04-15T00:57:19;6.80;99.90
11505;DHT22;5809;53.262;10.408;2023-04-15T00:59:48;6.80;99.90
11505;DHT22;5809;53.262;10.408;2023-04-15T01:02:15;6.80;99.90
11505;DHT22;5809;53.262;10.408;2023-04-15T01:07:09;6.80;99.90
11505;DHT22;5809;53.262;10.408;2023-04-15T01:12:05;6.80;99.90
11505;DHT22;5809;53.262;10.408;2023-04-15T01:17:01;6.80;99.90
11505;DHT22;5809;53.262;10.408;2023-04-15T01:19:28;6.80;99.90
11505;DHT22;5809;53.262;10.408;2023-04-15T01:21:55;6.80;99.90
11505;DHT22;5809;53.262;10.408;2023-04-15T01:24:23;6.80;99.90
11505;DHT22;5809;53.262;10.408;2023-04-15T01:26:53;6.70;99.90
11505;DHT22;5809;53.262;10.408;2023-04-15T01:31:50;6.80;99.90
11505;DHT22;5809;53.262;10.408;2023-04-15T01:34:18;6.80;99.90
11505;DHT22;5809;53.262;10.408;2023-04-15T01:36:45;6.80;99.90
11505;DHT22;5809;53.262;10.408;2023-04-15T01:44:08;6.80;99.90
11505;DHT22;5809;53.262;10.408;2023-04-15T01:46:35;6.70;99.90
11505;DHT22;5809;53.262;10.408;2023-04-15T01:49:02;6.80;99.90
11505;DHT22;5809;53.262;10.408;2023-04-15T01:51:29;6.80;99.90
11505;DHT22;5809;53.262;10.408;2023-04-15T01:53:56;6.80;99.90
11505;DHT22;5809;53.262;10.408;2023-04-15T01:56:23;6.80;99.90
11505;DHT22;5809;53.262;10.408;2023-04-15T01:58:51;6.80;99.90
11505;DHT22;5809;53.262;10.408;2023-04-15T02:01:19;3.30;99.90
11505;DHT22;5809;53.262;10.408;2023-04-15T02:03:47;6.80;99.90
11505;DHT22;5809;53.262;10.408;2023-04-15T02:06:14;6.80;99.90
11505;DHT22;5809;53.262;10.408;2023-04-15T02:08:41;6.80;99.90
11505;DHT22;5809;53.262;10.408;2023-04-15T02:11:08;6.80;99.90
11505;DHT22;5809;53.262;10.408;2023-04-15T02:13:35;6.80;99.90
11505;DHT22;5809;53.262;10.408;2023-04-15T02:16:02;6.80;99.90
11505;DHT22;5809;53.262;10.408;2023-04-15T02:18:30;6.80;99.90
11505;DHT22;5809;53.262;10.408;2023-04-15T02:20:57;6.80;99.90
11505;DHT22;5809;53.262;10.408;2023-04-15T02:23:24;6.80;99.90
11505;DHT22;5809;53.262;10.408;2023-04-15T02:28:18;6.90;99.90
11505;DHT22;5809;53.262;10.408;2023-04-15T02:30:47;6.90;99.90
11505;DHT22;5809;53.262;10.408;2023-04-15T02:35:43;6.90;99.90
11505;DHT22;5809;53.262;10.408;2023-04-15T02:38:11;6.90;99.90
11505;DHT22;5809;53.262;10.408;2023-04-15T02:40:38;6.90;99.90
11505;DHT22;5809;53.262;10.408;2023-04-15T02:45:32;6.90;99.90
11505;DHT22;5809;53.262;10.408;2023-04-15T02:50:30;6.90;99.90
11505;DHT22;5809;53.262;10.408;2023-04-15T02:52:59;6.90;99.90
11505;DHT22;5809;53.262;10.408;2023-04-15T02:55:27;6.90;99.90
11505;DHT22;5809;53.262;10.408;2023-04-15T02:57:54;6.90;99.90
11505;DHT22;5809;53.262;10.408;2023-04-15T03:05:21;6.90;99.90
11505;DHT22;5809;53.262;10.408;2023-04-15T03:07:49;7.00;99.90
11505;DHT22;5809;53.262;10.408;2023-04-15T03:10:17;7.00;99.90
11505;DHT22;5809;53.262;10.408;2023-04-15T03:12:44;6.90;99.90
11505;DHT22;5809;53.262;10.408;2023-04-15T03:15:11;6.90;99.90
11505;DHT22;5809;53.262;10.408;2023-04-15T03:20:06;7.00;99.90
11505;DHT22;5809;53.262;10.408;2023-04-15T03:22:34;7.00;99.90
11505;DHT22;5809;53.262;10.408;2023-04-15T03:25:00;7.00;99.90
11505;DHT22;5809;53.262;10.408;2023-04-15T03:27:29;7.00;99.90
11505;DHT22;5809;53.262;10.408;2023-04-15T03:32:23;7.00;99.90
11505;DHT22;5809;53.262;10.408;2023-04-15T03:34:51;7.00;99.90
11505;DHT22;5809;53.262;10.408;2023-04-15T03:39:45;7.00;99.90
11505;DHT22;5809;53.262;10.408;2023-04-15T03:42:12;7.00;99.90
11505;DHT22;5809;53.262;10.408;2023-04-15T03:44:40;7.10;99.90
11505;DHT22;5809;53.262;10.408;2023-04-15T03:47:07;7.10;99.90
11505;DHT22;5809;53.262;10.408;2023-04-15T03:49:35;7.10;99.90
11505;DHT22;5809;53.262;10.408;2023-04-15T03:52:02;7.10;99.90
11505;DHT22;5809;53.262;10.408;2023-04-15T03:54:29;7.10;99.90
11505;DHT22;5809;53.262;10.408;2023-04-15T03:56:56;7.10;99.90
11505;DHT22;5809;53.262;10.408;2023-04-15T03:59:23;7.10;99.90
11505;DHT22;5809;53.262;10.408;2023-04-15T04:01:51;7.10;99.90
11505;DHT22;5809;53.262;10.408;2023-04-15T04:04:18;7.10;99.90
11505;DHT22;5809;53.262;10.408;2023-04-15T04:06:45;7.10;99.90
11505;DHT22;5809;53.262;10.408;2023-04-15T04:09:11;7.10;99.90
11505;DHT22;5809;53.262;10.408;2023-04-15T04:11:38;7.10;99.90
11505;DHT22;5809;53.262;10.408;2023-04-15T04:16:32;7.10;99.90
11505;DHT22;5809;53.262;10.408;2023-04-15T04:19:01;7.10;99.90
11505;DHT22;5809;53.262;10.408;2023-04-15T04:21:28;7.20;99.90
11505;DHT22;5809;53.262;10.408;2023-04-15T04:23:55;7.20;99.90
11505;DHT22;5809;53.262;10.408;2023-04-15T04:26:23;7.10;99.90
11505;DHT22;5809;53.262;10.408;2023-04-15T04:28:50;7.20;99.90
11505;DHT22;5809;53.262;10.408;2023-04-15T04:31:17;7.20;99.90
11505;DHT22;5809;53.262;10.408;2023-04-15T04:33:44;7.10;99.90
11505;DHT22;5809;53.262;10.408;2023-04-15T04:36:12;7.20;99.90
11505;DHT22;5809;53.262;10.408;2023-04-15T04:38:39;7.20;99.90
11505;DHT22;5809;53.262;10.408;2023-04-15T04:43:33;7.20;99.90
11505;DHT22;5809;53.262;10.408;2023-04-15T04:48:27;7.20;99.90
11505;DHT22;5809;53.262;10.408;2023-04-15T04:50:54;7.20;99.90
11505;DHT22;5809;53.262;10.408;2023-04-15T04:53:22;7.20;99.90
11505;DHT22;5809;53.262;10.408;2023-04-15T04:55:49;7.20;99.90
11505;DHT22;5809;53.262;10.408;2023-04-15T05:05:38;7.20;99.90
11505;DHT22;5809;53.262;10.408;2023-04-15T05:08:06;7.20;99.90
11505;DHT22;5809;53.262;10.408;2023-04-15T05:10:34;7.20;99.90
11505;DHT22;5809;53.262;10.408;2023-04-15T05:13:01;7.20;99.90
11505;DHT22;5809;53.262;10.408;2023-04-15T05:15:28;7.20;99.90
11505;DHT22;5809;53.262;10.408;2023-04-15T05:20:22;7.30;99.90
11505;DHT22;5809;53.262;10.408;2023-04-15T05:25:16;7.30;99.90
11505;DHT22;5809;53.262;10.408;2023-04-15T05:27:45;7.30;99.90
11505;DHT22;5809;53.262;10.408;2023-04-15T05:32:39;7.30;99.90
11505;DHT22;5809;53.262;10.408;2023-04-15T05:35:07;7.30;99.90
11505;DHT22;5809;53.262;10.408;2023-04-15T05:40:01;7.30;99.90
11505;DHT22;5809;53.262;10.408;2023-04-15T05:42:28;7.40;99.90
11505;DHT22;5809;53.262;10.408;2023-04-15T05:44:57;7.40;99.90
11505;DHT22;5809;53.262;10.408;2023-04-15T05:47:24;7.40;99.90
11505;DHT22;5809;53.262;10.408;2023-04-15T05:49:51;7.40;99.90
11505;DHT22;5809;53.262;10.408;2023-04-15T05:52:17;7.40;99.90
11505;DHT22;5809;53.262;10.408;2023-04-15T05:59:39;7.50;99.90
11505;DHT22;5809;53.262;10.408;2023-04-15T06:02:08;7.50;99.90
11505;DHT22;5809;53.262;10.408;2023-04-15T06:04:36;7.50;99.90
11505;DHT22;5809;53.262;10.408;2023-04-15T06:09:31;7.50;99.90
11505;DHT22;5809;53.262;10.408;2023-04-15T06:11:58;7.50;99.90
11505;DHT22;5809;53.262;10.408;2023-04-15T06:14:26;7.50;99.90
11505;DHT22;5809;53.262;10.408;2023-04-15T06:19:22;7.50;99.90
11505;DHT22;5809;53.262;10.408;2023-04-15T06:26:44;7.50;99.90
11505;DHT22;5809;53.262;10.408;2023-04-15T06:29:10;7.50;99.90
11505;DHT22;5809;53.262;10.408;2023-04-15T06:31:37;7.60;99.90
11505;DHT22;5809;53.262;10.408;2023-04-15T06:34:04;7.50;99.90
11505;DHT22;5809;53.262;10.408;2023-04-15T06:36:33;5.30;99.90
11505;DHT22;5809;53.262;10.408;2023-04-15T06:43:54;7.50;99.90
11505;DHT22;5809;53.262;10.408;2023-04-15T06:51:16;7.50;99.90
11505;DHT22;5809;53.262;10.408;2023-04-15T06:53:45;7.40;99.90
11505;DHT22;5809;53.262;10.408;2023-04-15T06:56:11;7.50;99.90
11505;DHT22;5809;53.262;10.408;2023-04-15T07:06:01;7.70;99.90
11505;DHT22;5809;53.262;10.408;2023-04-15T07:11:00;7.70;99.90
11505;DHT22;5809;53.262;10.408;2023-04-15T07:13:30;7.70;99.90
11505;DHT22;5809;53.262;10.408;2023-04-15T07:15:57;7.70;99.90
11505;DHT22;5809;53.262;10.408;2023-04-15T07:20:51;7.80;99.90
11505;DHT22;5809;53.262;10.408;2023-04-15T07:25:45;7.90;99.90
11505;DHT22;5809;53.262;10.408;2023-04-15T07:28:14;7.90;99.90
11505;DHT22;5809;53.262;10.408;2023-04-15T07:30:41;7.90;99.90
11505;DHT22;5809;53.262;10.408;2023-04-15T07:38:03;7.90;99.90
11505;DHT22;5809;53.262;10.408;2023-04-15T07:40:29;7.90;99.90
11505;DHT22;5809;53.262;10.408;2023-04-15T07:42:56;7.90;99.90
11505;DHT22;5809;53.262;10.408;2023-04-15T07:45:25;7.90;99.90
11505;DHT22;5809;53.262;10.408;2023-04-15T07:47:52;8.00;99.90
11505;DHT22;5809;53.262;10.408;2023-04-15T07:50:20;7.80;99.90
11505;DHT22;5809;53.262;10.408;2023-04-15T07:52:48;7.90;99.90
11505;DHT22;5809;53.262;10.408;2023-04-15T07:55:16;8.00;99.90
11505;DHT22;5809;53.262;10.408;2023-04-15T07:57:44;8.00;99.90
11505;DHT22;5809;53.262;10.408;2023-04-15T08:00:13;8.10;99.90
11505;DHT22;5809;53.262;10.408;2023-04-15T08:02:42;8.20;99.90
11505;DHT22;5809;53.262;10.408;2023-04-15T08:05:09;8.20;99.90
11505;DHT22;5809;53.262;10.408;2023-04-15T08:07:36;8.20;99.90
11505;DHT22;5809;53.262;10.408;2023-04-15T08:10:04;8.20;99.90
11505;DHT22;5809;53.262;10.408;2023-04-15T08:14:58;8.30;99.90
11505;DHT22;5809;53.262;10.408;2023-04-15T08:17:26;8.30;99.90
11505;DHT22;5809;53.262;10.408;2023-04-15T08:19:54;8.40;99.90
11505;DHT22;5809;53.262;10.408;2023-04-15T08:22:21;8.40;99.90
11505;DHT22;5809;53.262;10.408;2023-04-15T08:24:48;8.40;99.90
11505;DHT22;5809;53.262;10.408;2023-04-15T08:27:15;8.40;99.90
11505;DHT22;5809;53.262;10.408;2023-04-15T08:29:43;8.40;99.90
11505;DHT22;5809;53.262;10.408;2023-04-15T08:32:10;8.40;99.90
11505;DHT22;5809;53.262;10.408;2023-04-15T08:34:37;8.50;99.90
11505;DHT22;5809;53.262;10.408;2023-04-15T08:37:05;8.60;99.90
11505;DHT22;5809;53.262;10.408;2023-04-15T08:42:01;8.50;99.90
11505;DHT22;5809;53.262;10.408;2023-04-15T08:44:29;8.50;99.90
11505;DHT22;5809;53.262;10.408;2023-04-15T08:47:00;8.60;99.90
11505;DHT22;5809;53.262;10.408;2023-04-15T08:49:28;8.60;99.90
11505;DHT22;5809;53.262;10.408;2023-04-15T08:51:57;8.60;99.90
11505;DHT22;5809;53.262;10.408;2023-04-15T08:54:26;8.60;99.90
11505;DHT22;5809;53.262;10.408;2023-04-15T08:56:53;8.70;99.90
11505;DHT22;5809;53.262;10.408;2023-04-15T08:59:21;8.70;99.90
11505;DHT22;5809;53.262;10.408;2023-04-15T09:01:48;8.80;99.90
11505;DHT22;5809;53.262;10.408;2023-04-15T09:04:16;8.80;99.90
11505;DHT22;5809;53.262;10.408;2023-04-15T09:09:11;8.80;99.90
11505;DHT22;5809;53.262;10.408;2023-04-15T09:11:40;8.80;99.90
11505;DHT22;5809;53.262;10.408;2023-04-15T09:14:07;8.80;99.90
11505;DHT22;5809;53.262;10.408;2023-04-15T09:16:54;8.80;99.90
11505;DHT22;5809;53.262;10.408;2023-04-15T09:19:23;8.90;99.90
11505;DHT22;5809;53.262;10.408;2023-04-15T09:21:50;9.00;99.90
11505;DHT22;5809;53.262;10.408;2023-04-15T09:24:17;9.10;99.90
11505;DHT22;5809;53.262;10.408;2023-04-15T09:26:46;9.20;99.90
11505;DHT22;5809;53.262;10.408;2023-04-15T09:29:13;9.20;99.90
11505;DHT22;5809;53.262;10.408;2023-04-15T09:31:41;9.30;99.90
11505;DHT22;5809;53.262;10.408;2023-04-15T09:34:08;9.40;99.90
11505;DHT22;5809;53.262;10.408;2023-04-15T09:36:51;9.40;99.90
11505;DHT22;5809;53.262;10.408;2023-04-15T09:39:18;9.40;99.90
11505;DHT22;5809;53.262;10.408;2023-04-15T09:41:46;9.50;99.90
11505;DHT22;5809;53.262;10.408;2023-04-15T09:44:23;9.60;99.90
11505;DHT22;5809;53.262;10.408;2023-04-15T09:46:50;9.70;99.90
11505;DHT22;5809;53.262;10.408;2023-04-15T09:49:17;9.70;99.90
11505;DHT22;5809;53.262;10.408;2023-04-15T09:51:44;9.70;99.90
11505;DHT22;5809;53.262;10.408;2023-04-15T09:54:11;9.80;99.90
11505;DHT22;5809;53.262;10.408;2023-04-15T09:56:39;9.80;99.90
11505;DHT22;5809;53.262;10.408;2023-04-15T09:59:08;9.90;99.90
11505;DHT22;5809;53.262;10.408;2023-04-15T10:01:35;10.10;99.90
11505;DHT22;5809;53.262;10.408;2023-04-15T10:04:03;10.10;99.90
11505;DHT22;5809;53.262;10.408;2023-04-15T10:06:31;10.20;99.90
11505;DHT22;5809;53.262;10.408;2023-04-15T10:08:58;10.30;99.90
11505;DHT22;5809;53.262;10.408;2023-04-15T10:11:27;10.30;99.90
11505;DHT22;5809;53.262;10.408;2023-04-15T10:13:56;10.40;99.90
11505;DHT22;5809;53.262;10.408;2023-04-15T10:16:26;10.60;99.90
11505;DHT22;5809;53.262;10.408;2023-04-15T10:18:54;10.60;99.90
11505;DHT22;5809;53.262;10.408;2023-04-15T10:21:22;10.80;99.90
11505;DHT22;5809;53.262;10.408;2023-04-15T10:23:50;10.80;99.90
11505;DHT22;5809;53.262;10.408;2023-04-15T10:26:17;10.80;99.90
11505;DHT22;5809;53.262;10.408;2023-04-15T10:28:44;10.80;99.90
11505;DHT22;5809;53.262;10.408;2023-04-15T10:31:14;10.80;99.90
11505;DHT22;5809;53.262;10.408;2023-04-15T10:33:43;10.90;99.90
11505;DHT22;5809;53.262;10.408;2023-04-15T10:36:10;10.90;99.90
11505;DHT22;5809;53.262;10.408;2023-04-15T10:38:39;11.00;99.90
11505;DHT22;5809;53.262;10.408;2023-04-15T10:41:14;11.10;99.90
11505;DHT22;5809;53.262;10.408;2023-04-15T10:43:46;11.20;99.90
11505;DHT22;5809;53.262;10.408;2023-04-15T10:46:17;11.40;99.90
11505;DHT22;5809;53.262;10.408;2023-04-15T10:48:50;11.50;99.90
11505;DHT22;5809;53.262;10.408;2023-04-15T10:51:26;11.60;99.90
11505;DHT22;5809;53.262;10.408;2023-04-15T10:53:56;12.00;99.90
11505;DHT22;5809;53.262;10.408;2023-04-15T10:56:24;13.00;99.90
11505;DHT22;5809;53.262;10.408;2023-04-15T10:58:51;14.70;99.90
11505;DHT22;5809;53.262;10.408;2023-04-15T11:01:19;15.80;99.90
11505;DHT22;5809;53.262;10.408;2023-04-15T11:03:49;16.40;99.90
11505;DHT22;5809;53.262;10.408;2023-04-15T11:06:16;17.20;46.60
11505;DHT22;5809;53.262;10.408;2023-04-15T11:08:57;18.10;1.00
11505;DHT22;5809;53.262;10.408;2023-04-15T11:12:04;18.30;1.00
11505;DHT22;5809;53.262;10.408;2023-04-15T11:14:32;17.40;1.00
11505;DHT22;5809;53.262;10.408;2023-04-15T11:17:00;16.80;1.00
11505;DHT22;5809;53.262;10.408;2023-04-15T11:19:36;16.30;84.60
11505;DHT22;5809;53.262;10.408;2023-04-15T11:22:07;15.70;99.90
11505;DHT22;5809;53.262;10.408;2023-04-15T11:24:34;15.40;99.90
11505;DHT22;5809;53.262;10.408;2023-04-15T11:27:01;15.10;99.90
11505;DHT22;5809;53.262;10.408;2023-04-15T11:29:29;14.80;99.90
11505;DHT22;5809;53.262;10.408;2023-04-15T11:32:04;14.80;99.90
11505;DHT22;5809;53.262;10.408;2023-04-15T11:34:32;14.70;99.90
11505;DHT22;5809;53.262;10.408;2023-04-15T11:37:03;14.70;99.90
11505;DHT22;5809;53.262;10.408;2023-04-15T11:39:30;14.50;99.90
11505;DHT22;5809;53.262;10.408;2023-04-15T11:41:57;14.40;99.90
11505;DHT22;5809;53.262;10.408;2023-04-15T11:44:24;14.30;99.90
11505;DHT22;5809;53.262;10.408;2023-04-15T11:46:51;14.00;99.90
11505;DHT22;5809;53.262;10.408;2023-04-15T11:49:28;13.80;99.90
11505;DHT22;5809;53.262;10.408;2023-04-15T11:51:55;13.60;99.90
11505;DHT22;5809;53.262;10.408;2023-04-15T11:54:24;13.60;99.90
11505;DHT22;5809;53.262;10.408;2023-04-15T11:56:51;13.60;99.90
11505;DHT22;5809;53.262;10.408;2023-04-15T11:59:19;13.60;99.90
11505;DHT22;5809;53.262;10.408;2023-04-15T12:01:46;17.30;99.90
11505;DHT22;5809;53.262;10.408;2023-04-15T12:04:14;13.50;99.90
11505;DHT22;5809;53.262;10.408;2023-04-15T12:06:41;13.50;99.90
11505;DHT22;5809;53.262;10.408;2023-04-15T12:09:10;13.40;99.90
11505;DHT22;5809;53.262;10.408;2023-04-15T12:11:41;13.20;99.90
11505;DHT22;5809;53.262;10.408;2023-04-15T12:14:20;13.10;99.90
11505;DHT22;5809;53.262;10.408;2023-04-15T12:16:49;13.20;99.90
11505;DHT22;5809;53.262;10.408;2023-04-15T12:19:22;13.30;99.90
11505;DHT22;5809;53.262;10.408;2023-04-15T12:21:49;13.20;99.90
11505;DHT22;5809;53.262;10.408;2023-04-15T12:24:20;13.10;99.90
11505;DHT22;5809;53.262;10.408;2023-04-15T12:26:50;13.00;99.90
11505;DHT22;5809;53.262;10.408;2023-04-15T12:29:18;13.10;99.90
11505;DHT22;5809;53.262;10.408;2023-04-15T12:31:47;13.30;99.90
11505;DHT22;5809;53.262;10.408;2023-04-15T12:34:15;13.50;99.90
11505;DHT22;5809;53.262;10.408;2023-04-15T12:36:42;13.70;99.90
11505;DHT22;5809;53.262;10.408;2023-04-15T12:39:09;13.80;99.90
11505;DHT22;5809;53.262;10.408;2023-04-15T12:41:36;14.00;99.90
11505;DHT22;5809;53.262;10.408;2023-04-15T12:44:04;14.10;99.90
11505;DHT22;5809;53.262;10.408;2023-04-15T12:46:31;14.00;99.90
11505;DHT22;5809;53.262;10.408;2023-04-15T12:48:59;14.00;99.90
11505;DHT22;5809;53.262;10.408;2023-04-15T12:51:26;14.00;99.90
11505;DHT22;5809;53.262;10.408;2023-04-15T12:53:53;13.90;99.90
11505;DHT22;5809;53.262;10.408;2023-04-15T12:56:20;13.70;99.90
11505;DHT22;5809;53.262;10.408;2023-04-15T12:58:47;13.60;99.90
11505;DHT22;5809;53.262;10.408;2023-04-15T13:01:15;13.30;99.90
11505;DHT22;5809;53.262;10.408;2023-04-15T13:03:42;13.10;99.90
11505;DHT22;5809;53.262;10.408;2023-04-15T13:06:09;13.10;99.90
11505;DHT22;5809;53.262;10.408;2023-04-15T13:08:36;13.20;99.90
11505;DHT22;5809;53.262;10.408;2023-04-15T13:11:03;13.20;99.90
11505;DHT22;5809;53.262;10.408;2023-04-15T13:13:30;13.30;99.90
11505;DHT22;5809;53.262;10.408;2023-04-15T13:15:57;13.20;99.90
11505;DHT22;5809;53.262;10.408;2023-04-15T13:18:25;13.10;99.90
11505;DHT22;5809;53.262;10.408;2023-04-15T13:20:53;13.00;99.90
11505;DHT22;5809;53.262;10.408;2023-04-15T13:23:20;13.00;99.90
11505;DHT22;5809;53.262;10.408;2023-04-15T13:25:47;12.90;99.90
11505;DHT22;5809;53.262;10.408;2023-04-15T13:28:14;12.90;99.90
11505;DHT22;5809;53.262;10.408;2023-04-15T13:30:47;12.90;99.90
11505;DHT22;5809;53.262;10.408;2023-04-15T13:33:16;12.80;99.90
11505;DHT22;5809;53.262;10.408;2023-04-15T13:38:11;13.00;99.90
11505;DHT22;5809;53.262;10.408;2023-04-15T13:40:38;13.00;99.90
11505;DHT22;5809;53.262;10.408;2023-04-15T13:43:05;13.00;99.90
11505;DHT22;5809;53.262;10.408;2023-04-15T13:45:32;13.00;99.90
11505;DHT22;5809;53.262;10.408;2023-04-15T13:47:59;13.00;99.90
11505;DHT22;5809;53.262;10.408;2023-04-15T13:50:26;13.00;99.90
11505;DHT22;5809;53.262;10.408;2023-04-15T13:52:55;13.00;99.90
11505;DHT22;5809;53.262;10.408;2023-04-15T13:57:50;12.90;99.90
11505;DHT22;5809;53.262;10.408;2023-04-15T14:00:17;12.80;99.90
11505;DHT22;5809;53.262;10.408;2023-04-15T14:02:44;12.80;99.90
11505;DHT22;5809;53.262;10.408;2023-04-15T14:05:11;12.80;99.90
11505;DHT22;5809;53.262;10.408;2023-04-15T14:07:38;12.80;99.90
11505;DHT22;5809;53.262;10.408;2023-04-15T14:10:07;12.80;99.90
11505;DHT22;5809;53.262;10.408;2023-04-15T14:12:34;12.80;99.90
11505;DHT22;5809;53.262;10.408;2023-04-15T14:15:01;12.80;99.90
11505;DHT22;5809;53.262;10.408;2023-04-15T14:17:28;12.90;99.90
11505;DHT22;5809;53.262;10.408;2023-04-15T14:19:55;12.90;99.90
11505;DHT22;5809;53.262;10.408;2023-04-15T14:22:22;13.10;99.90
11505;DHT22;5809;53.262;10.408;2023-04-15T14:24:49;13.10;99.90
11505;DHT22;5809;53.262;10.408;2023-04-15T14:27:19;16.30;99.90
11505;DHT22;5809;53.262;10.408;2023-04-15T14:29:46;13.30;99.90
11505;DHT22;5809;53.262;10.408;2023-04-15T14:32:13;13.30;99.90
11505;DHT22;5809;53.262;10.408;2023-04-15T14:34:40;13.50;99.90
11505;DHT22;5809;53.262;10.408;2023-04-15T14:37:07;13.50;99.90
11505;DHT22;5809;53.262;10.408;2023-04-15T14:39:34;13.60;99.90
11505;DHT22;5809;53.262;10.408;2023-04-15T14:42:01;13.60;99.90
11505;DHT22;5809;53.262;10.408;2023-04-15T14:44:29;13.60;99.90
11505;DHT22;5809;53.262;10.408;2023-04-15T14:46:56;13.60;99.90
11505;DHT22;5809;53.262;10.408;2023-04-15T14:49:23;13.60;99.90
11505;DHT22;5809;53.262;10.408;2023-04-15T14:51:50;13.60;99.90
11505;DHT22;5809;53.262;10.408;2023-04-15T14:54:17;13.60;99.90
11505;DHT22;5809;53.262;10.408;2023-04-15T14:56:44;13.50;99.90
11505;DHT22;5809;53.262;10.408;2023-04-15T15:04:09;13.60;99.90
11505;DHT22;5809;53.262;10.408;2023-04-15T15:06:36;13.70;99.90
11505;DHT22;5809;53.262;10.408;2023-04-15T15:09:03;13.70;99.90
11505;DHT22;5809;53.262;10.408;2023-04-15T15:11:30;13.70;99.90
11505;DHT22;5809;53.262;10.408;2023-04-15T15:16:24;13.80;58.30
11505;DHT22;5809;53.262;10.408;2023-04-15T15:18:53;14.10;83.90
11505;DHT22;5809;53.262;10.408;2023-04-15T15:21:20;13.70;89.80
11505;DHT22;5809;53.262;10.408;2023-04-15T15:23:47;13.80;93.80
11505;DHT22;5809;53.262;10.408;2023-04-15T15:26:14;13.80;70.90
11505;DHT22;5809;53.262;10.408;2023-04-15T15:28:42;13.80;43.30
11505;DHT22;5809;53.262;10.408;2023-04-15T15:31:10;13.80;81.10
11505;DHT22;5809;53.262;10.408;2023-04-15T15:33:37;14.50;48.70
11505;DHT22;5809;53.262;10.408;2023-04-15T15:36:05;14.40;37.50
11505;DHT22;5809;53.262;10.408;2023-04-15T15:38:32;14.10;50.00
11505;DHT22;5809;53.262;10.408;2023-04-15T15:40:59;14.30;59.00
11505;DHT22;5809;53.262;10.408;2023-04-15T15:43:26;14.60;19.50
11505;DHT22;5809;53.262;10.408;2023-04-15T15:45:54;14.70;1.00
11505;DHT22;5809;53.262;10.408;2023-04-15T15:48:21;14.70;1.00
11505;DHT22;5809;53.262;10.408;2023-04-15T15:50:49;14.80;1.00
11505;DHT22;5809;53.262;10.408;2023-04-15T15:53:22;15.10;1.00
11505;DHT22;5809;53.262;10.408;2023-04-15T15:55:51;14.50;8.50
11505;DHT22;5809;53.262;10.408;2023-04-15T15:58:18;14.50;41.50
11505;DHT22;5809;53.262;10.408;2023-04-15T16:00:45;14.20;89.50
11505;DHT22;5809;53.262;10.408;2023-04-15T16:03:12;14.00;90.40
11505;DHT22;5809;53.262;10.408;2023-04-15T16:05:39;13.70;99.90
11505;DHT22;5809;53.262;10.408;2023-04-15T16:08:06;13.60;99.90
11505;DHT22;5809;53.262;10.408;2023-04-15T16:13:02;13.70;99.90
11505;DHT22;5809;53.262;10.408;2023-04-15T16:15:29;13.60;99.90
11505;DHT22;5809;53.262;10.408;2023-04-15T16:17:56;13.60;99.90
11505;DHT22;5809;53.262;10.408;2023-04-15T16:20:23;13.60;99.90
11505;DHT22;5809;53.262;10.408;2023-04-15T16:22:50;13.60;99.90
11505;DHT22;5809;53.262;10.408;2023-04-15T16:25:17;13.50;99.90
11505;DHT22;5809;53.262;10.408;2023-04-15T16:27:45;13.50;99.90
11505;DHT22;5809;53.262;10.408;2023-04-15T16:30:12;13.50;99.90
11505;DHT22;5809;53.262;10.408;2023-04-15T16:40:02;13.10;99.90
11505;DHT22;5809;53.262;10.408;2023-04-15T16:42:29;12.90;99.90
11505;DHT22;5809;53.262;10.408;2023-04-15T16:44:58;12.80;99.90
11505;DHT22;5809;53.262;10.408;2023-04-15T16:49:52;12.50;99.90
11505;DHT22;5809;53.262;10.408;2023-04-15T16:52:19;12.30;99.90
11505;DHT22;5809;53.262;10.408;2023-04-15T16:57:13;12.10;99.90
11505;DHT22;5809;53.262;10.408;2023-04-15T16:59:40;12.10;99.90
11505;DHT22;5809;53.262;10.408;2023-04-15T17:02:10;12.00;99.90
11505;DHT22;5809;53.262;10.408;2023-04-15T17:07:06;11.80;99.90
11505;DHT22;5809;53.262;10.408;2023-04-15T17:09:35;11.80;99.90
11505;DHT22;5809;53.262;10.408;2023-04-15T17:12:02;11.70;99.90
11505;DHT22;5809;53.262;10.408;2023-04-15T17:14:30;11.60;99.90
11505;DHT22;5809;53.262;10.408;2023-04-15T17:16:57;11.60;99.90
11505;DHT22;5809;53.262;10.408;2023-04-15T17:21:52;11.40;99.90
11505;DHT22;5809;53.262;10.408;2023-04-15T17:26:46;11.30;99.90
11505;DHT22;5809;53.262;10.408;2023-04-15T17:29:13;11.20;99.90
11505;DHT22;5809;53.262;10.408;2023-04-15T17:31:40;11.10;99.90
11505;DHT22;5809;53.262;10.408;2023-04-15T17:34:07;11.20;99.90
11505;DHT22;5809;53.262;10.408;2023-04-15T17:36:35;11.00;99.90
11505;DHT22;5809;53.262;10.408;2023-04-15T17:39:03;11.00;99.90
11505;DHT22;5809;53.262;10.408;2023-04-15T17:43:57;10.90;99.90
11505;DHT22;5809;53.262;10.408;2023-04-15T17:46:24;10.80;99.90
11505;DHT22;5809;53.262;10.408;2023-04-15T17:48:51;10.70;99.90
11505;DHT22;5809;53.262;10.408;2023-04-15T17:51:17;10.70;99.90
11505;DHT22;5809;53.262;10.408;2023-04-15T18:01:07;10.50;99.90
11505;DHT22;5809;53.262;10.408;2023-04-15T18:08:30;10.40;99.90
11505;DHT22;5809;53.262;10.408;2023-04-15T18:13:25;10.30;99.90
11505;DHT22;5809;53.262;10.408;2023-04-15T18:15:53;10.20;99.90
11505;DHT22;5809;53.262;10.408;2023-04-15T18:20:48;10.20;99.90
11505;DHT22;5809;53.262;10.408;2023-04-15T18:25:42;10.10;99.90
11505;DHT22;5809;53.262;10.408;2023-04-15T18:28:11;10.00;99.90
11505;DHT22;5809;53.262;10.408;2023-04-15T18:38:01;9.90;99.90
11505;DHT22;5809;53.262;10.408;2023-04-15T18:40:28;9.90;99.90
11505;DHT22;5809;53.262;10.408;2023-04-15T18:42:55;9.90;99.90
11505;DHT22;5809;53.262;10.408;2023-04-15T18:45:23;9.90;99.90
11505;DHT22;5809;53.262;10.408;2023-04-15T18:47:50;9.90;99.90